Weather at Sydney Kingsford Smith International Airport

Public forecast

Using degrees Celsius for public forecast. Weather courtesy of forecast.io.

Current aviation weather report (METAR) for Sydney Kingsford Smith International Airport

2024/02/29 09:00 (retrieved 24 minutes ago)

YSSY 290900Z 01006KT 330V030 9999 FEW030 BKN170 30/22 Q1011

Aviation forecast (TAF) for Sydney Kingsford Smith International Airport

2024/02/29 09:58 (retrieved 0 seconds ago)

TAF YSSY 290817Z 2909/0112 04010KT CAVOK FM290930 18022G34KT 9999 SCT007 BECMG 2914/2916 18012KT 9999 SCT007 BKN010 BECMG 2920/2922 12008KT 9999 SCT015 FM010200 05014KT CAVOK FM010900 01008KT 9999 FEW012 TEMPO 2911/2922 9999 BKN007 PROB30 TEMPO 2909/2914 VRB25G45KT 3000 TSRA SCT020 SCT090CB